createdAt,value
2023-10-10T00:00:23.917Z,78.26
2023-10-10T00:01:47.241Z,78.04
2023-10-10T00:02:51.766Z,78.39
2023-10-10T00:03:55.207Z,78.48
2023-10-10T00:05:04.159Z,78.11
2023-10-10T00:06:08.954Z,78.48
2023-10-10T00:07:14.714Z,78.35
2023-10-10T00:08:20.972Z,78.14
2023-10-10T00:09:26.722Z,77.98
2023-10-10T00:10:31.670Z,78.01
2023-10-10T00:11:37.408Z,77.94
2023-10-10T00:12:41.154Z,77.84
2023-10-10T00:13:46.795Z,78.23
2023-10-10T00:14:51.104Z,78.32
2023-10-10T00:15:57.215Z,78.27
2023-10-10T00:17:01.535Z,78.11
2023-10-10T00:18:11.746Z,78.23
2023-10-10T00:19:18.158Z,78.26
2023-10-10T00:20:22.716Z,78.40
2023-10-10T00:21:29.144Z,78.27
2023-10-10T00:22:35.231Z,78.46
2023-10-10T00:23:43.174Z,78.53
2023-10-10T00:24:48.831Z,78.65
2023-10-10T00:25:54.724Z,78.80
2023-10-10T00:26:59.490Z,79.11
2023-10-10T00:28:06.931Z,79.07
2023-10-10T00:29:12.224Z,79.27
2023-10-10T00:30:17.072Z,79.48
2023-10-10T00:31:20.926Z,79.81
2023-10-10T00:32:26.503Z,79.72
2023-10-10T00:33:31.828Z,79.49
2023-10-10T00:34:37.623Z,79.65
2023-10-10T00:35:40.919Z,79.87
2023-10-10T00:36:44.530Z,79.57
2023-10-10T00:37:49.179Z,80.18
2023-10-10T00:39:28.459Z,79.92
2023-10-10T00:40:31.854Z,80.03
2023-10-10T00:41:44.986Z,79.96
2023-10-10T00:42:49.628Z,79.78
2023-10-10T00:43:53.303Z,80.02
2023-10-10T00:44:56.861Z,80.11
2023-10-10T00:46:05.236Z,80.28
2023-10-10T00:47:13.964Z,80.34
2023-10-10T00:48:22.162Z,80.30
2023-10-10T00:49:31.771Z,80.29
2023-10-10T00:50:37.662Z,80.06
2023-10-10T00:51:41.818Z,80.28
2023-10-10T00:52:46.841Z,80.19
2023-10-10T00:54:10.259Z,80.15
2023-10-10T00:55:14.666Z,80.26
2023-10-10T00:56:19.452Z,80.40
2023-10-10T00:57:28.317Z,80.13
2023-10-10T00:58:50.635Z,79.98
2023-10-10T00:59:55.378Z,80.02
2023-10-10T01:00:59.245Z,80.16
2023-10-10T01:02:04.211Z,80.05
2023-10-10T01:03:27.917Z,80.05
2023-10-10T01:04:51.003Z,80.06
2023-10-10T01:05:55.653Z,79.99
2023-10-10T01:06:59.191Z,80.12
2023-10-10T01:08:03.959Z,80.24
2023-10-10T01:09:29.522Z,80.26
2023-10-10T01:10:37.824Z,80.08
2023-10-10T01:11:43.083Z,80.07
2023-10-10T01:12:47.190Z,80.27
2023-10-10T01:13:53.108Z,79.97
2023-10-10T01:14:58.004Z,80.07
2023-10-10T01:16:05.907Z,80.10
2023-10-10T01:17:13.018Z,80.00
2023-10-10T01:18:18.243Z,80.36
2023-10-10T01:19:22.393Z,80.25
2023-10-10T01:20:45.256Z,80.03
2023-10-10T01:21:51.826Z,80.10
2023-10-10T01:22:57.170Z,80.23
2023-10-10T01:24:07.252Z,80.13
2023-10-10T01:25:29.499Z,80.04
2023-10-10T01:26:36.797Z,80.10
2023-10-10T01:27:40.224Z,80.04
2023-10-10T01:28:43.599Z,80.01
2023-10-10T01:30:18.320Z,80.22
2023-10-10T01:31:24.634Z,80.28
2023-10-10T01:32:29.792Z,80.13
2023-10-10T01:33:42.983Z,80.06
2023-10-10T01:34:46.622Z,80.01
2023-10-10T01:35:56.406Z,79.99
2023-10-10T01:37:02.878Z,80.16
2023-10-10T01:38:14.804Z,80.04
2023-10-10T01:39:29.370Z,80.19
2023-10-10T01:40:38.085Z,80.15
2023-10-10T01:41:42.226Z,80.42
2023-10-10T01:42:52.064Z,80.32
2023-10-10T01:43:58.637Z,79.95
2023-10-10T01:45:11.285Z,79.94
2023-10-10T01:46:30.726Z,80.04
2023-10-10T01:47:35.356Z,79.95
2023-10-10T01:48:44.142Z,80.28
2023-10-10T01:49:49.001Z,80.44
2023-10-10T01:50:52.422Z,80.36
2023-10-10T01:51:59.276Z,80.28
2023-10-10T01:53:06.173Z,80.21
2023-10-10T01:54:32.583Z,80.35
2023-10-10T01:55:37.394Z,80.15
2023-10-10T01:56:41.091Z,80.43
2023-10-10T01:57:44.524Z,80.36
2023-10-10T01:58:54.046Z,80.34
2023-10-10T01:59:59.628Z,80.32
2023-10-10T02:01:13.624Z,80.43
2023-10-10T02:02:20.060Z,80.25
2023-10-10T02:03:24.566Z,80.39
2023-10-10T02:04:31.006Z,80.35
2023-10-10T02:05:36.927Z,80.61
2023-10-10T02:06:41.385Z,80.71
2023-10-10T02:07:49.661Z,80.49
2023-10-10T02:08:53.391Z,80.49
2023-10-10T02:10:18.076Z,80.48
2023-10-10T02:11:21.675Z,80.37
2023-10-10T02:12:26.957Z,80.58
2023-10-10T02:13:33.869Z,80.62
2023-10-10T02:14:37.685Z,80.60
2023-10-10T02:15:41.114Z,80.63
2023-10-10T02:16:47.867Z,80.91
2023-10-10T02:18:04.567Z,80.63
2023-10-10T02:19:16.821Z,80.60
2023-10-10T02:20:26.134Z,80.70
2023-10-10T02:21:32.663Z,80.82
2023-10-10T02:22:48.459Z,80.62
2023-10-10T02:23:54.423Z,80.85
2023-10-10T02:25:18.452Z,80.85
2023-10-10T02:26:29.041Z,80.82
2023-10-10T02:27:33.550Z,80.70
2023-10-10T02:28:49.895Z,80.80
2023-10-10T02:29:54.058Z,80.74
2023-10-10T02:31:03.568Z,80.98
2023-10-10T02:32:10.023Z,80.95
2023-10-10T02:33:20.050Z,80.99
2023-10-10T02:34:23.225Z,81.03
2023-10-10T02:35:27.968Z,80.72
2023-10-10T02:36:32.290Z,81.17
2023-10-10T02:37:41.306Z,80.97
2023-10-10T02:38:57.327Z,80.77
2023-10-10T02:40:16.455Z,81.19
2023-10-10T02:41:27.690Z,81.18
2023-10-10T02:42:33.743Z,80.96
2023-10-10T02:43:46.731Z,81.28
2023-10-10T02:44:59.032Z,81.03
2023-10-10T02:46:06.391Z,81.45
2023-10-10T02:47:12.714Z,81.18
2023-10-10T02:48:21.415Z,81.38
2023-10-10T02:49:28.265Z,81.09
2023-10-10T02:50:40.727Z,80.95
2023-10-10T02:51:47.794Z,81.09
2023-10-10T02:53:00.153Z,81.21
2023-10-10T02:54:22.585Z,81.24
2023-10-10T02:55:33.787Z,81.75
2023-10-10T02:56:44.002Z,81.52
2023-10-10T02:57:48.347Z,81.51
2023-10-10T02:58:54.923Z,81.55
2023-10-10T03:00:16.246Z,81.52
2023-10-10T03:01:39.865Z,81.65
2023-10-10T03:02:54.397Z,81.77
2023-10-10T03:03:58.105Z,81.73
2023-10-10T03:05:01.918Z,81.77
2023-10-10T03:06:07.028Z,81.95
2023-10-10T03:07:10.986Z,81.75
2023-10-10T03:08:15.370Z,81.87
2023-10-10T03:09:39.002Z,81.83
2023-10-10T03:10:46.456Z,81.54
2023-10-10T03:12:04.445Z,81.65
2023-10-10T03:13:17.382Z,81.65
2023-10-10T03:14:28.166Z,81.81
2023-10-10T03:15:33.958Z,81.76
2023-10-10T03:17:00.070Z,81.65
2023-10-10T03:18:10.255Z,81.63
2023-10-10T03:19:16.305Z,81.48
2023-10-10T03:20:35.444Z,81.55
2023-10-10T03:21:47.829Z,81.66
2023-10-10T03:23:10.574Z,81.53
2023-10-10T03:24:23.788Z,81.55
2023-10-10T03:25:37.678Z,81.67
2023-10-10T03:26:47.209Z,81.44
2023-10-10T03:28:05.787Z,81.73
2023-10-10T03:29:12.273Z,81.83
2023-10-10T03:30:20.961Z,81.52
2023-10-10T03:31:32.081Z,81.77
2023-10-10T03:32:56.179Z,81.75
2023-10-10T03:34:11.992Z,81.79
2023-10-10T03:35:34.139Z,81.81
2023-10-10T03:36:44.351Z,81.58
2023-10-10T03:38:04.866Z,81.83
2023-10-10T03:39:17.499Z,81.70
2023-10-10T03:40:41.385Z,81.79
2023-10-10T03:42:03.945Z,81.77
2023-10-10T03:43:26.072Z,81.87
2023-10-10T03:44:48.155Z,81.79
2023-10-10T03:46:10.627Z,81.67
2023-10-10T03:47:33.294Z,81.84
2023-10-10T03:49:15.917Z,82.07
2023-10-10T03:50:38.451Z,82.08
2023-10-10T03:52:00.407Z,82.06
2023-10-10T03:53:22.995Z,81.99
2023-10-10T03:54:45.470Z,82.09
2023-10-10T03:56:07.698Z,82.34
2023-10-10T03:57:29.972Z,82.30
2023-10-10T03:58:52.266Z,82.49
2023-10-10T04:00:15.687Z,82.44
2023-10-10T04:01:38.096Z,82.38
2023-10-10T04:03:00.131Z,82.35
2023-10-10T04:04:22.711Z,82.45
2023-10-10T04:05:44.989Z,82.32
2023-10-10T04:07:07.440Z,82.38
2023-10-10T04:08:29.596Z,82.69
2023-10-10T04:09:51.512Z,82.70
2023-10-10T04:11:13.714Z,82.63
2023-10-10T04:12:36.007Z,82.81
2023-10-10T04:13:58.076Z,82.65
2023-10-10T04:15:20.157Z,82.72
2023-10-10T04:16:43.077Z,82.68
2023-10-10T04:18:04.955Z,82.68
2023-10-10T04:19:27.184Z,82.68
2023-10-10T04:20:49.660Z,82.73
2023-10-10T04:22:12.227Z,82.65
2023-10-10T04:23:33.979Z,82.65
2023-10-10T04:24:56.758Z,82.77
2023-10-10T04:26:26.269Z,82.81
2023-10-10T04:27:48.708Z,82.57
2023-10-10T04:29:11.085Z,82.65
2023-10-10T04:30:33.594Z,82.60
2023-10-10T04:31:55.971Z,82.65
2023-10-10T04:33:18.004Z,82.51
2023-10-10T04:34:40.075Z,82.79
2023-10-10T04:36:04.154Z,82.49
2023-10-10T04:37:26.326Z,82.56
2023-10-10T04:38:48.005Z,82.71
2023-10-10T04:40:10.452Z,82.75
2023-10-10T04:41:33.879Z,82.49
2023-10-10T04:42:56.082Z,82.82
2023-10-10T04:44:18.781Z,82.81
2023-10-10T04:45:41.708Z,82.56
2023-10-10T04:47:04.712Z,82.66
2023-10-10T04:48:27.825Z,82.45
2023-10-10T04:49:49.872Z,82.75
2023-10-10T04:51:11.933Z,82.84
2023-10-10T04:52:34.158Z,82.66
2023-10-10T04:53:56.357Z,82.86
2023-10-10T04:55:18.582Z,82.96
2023-10-10T04:56:41.000Z,82.85
2023-10-10T04:58:04.185Z,83.17
2023-10-10T04:59:26.551Z,82.90
2023-10-10T05:00:49.151Z,82.50
2023-10-10T05:02:11.097Z,82.60
2023-10-10T05:03:33.299Z,82.33
2023-10-10T05:04:55.807Z,82.32
2023-10-10T05:06:19.037Z,82.31
2023-10-10T05:07:41.157Z,81.96
2023-10-10T05:09:03.586Z,81.81
2023-10-10T05:10:28.067Z,81.81
2023-10-10T05:11:50.693Z,81.80
2023-10-10T05:13:12.536Z,81.83
2023-10-10T05:14:34.521Z,81.63
2023-10-10T05:15:56.692Z,81.41
2023-10-10T05:17:19.134Z,81.29
2023-10-10T05:18:42.043Z,81.71
2023-10-10T05:20:04.623Z,81.56
2023-10-10T05:21:26.905Z,80.93
2023-10-10T05:22:48.975Z,80.71
2023-10-10T05:23:52.374Z,80.57
2023-10-10T05:24:57.457Z,80.10
2023-10-10T05:26:03.115Z,80.20
2023-10-10T05:27:06.578Z,79.80
2023-10-10T05:28:11.923Z,79.89
2023-10-10T05:29:20.170Z,79.31
2023-10-10T05:30:27.872Z,78.20
2023-10-10T05:31:31.893Z,78.31
2023-10-10T05:32:55.287Z,77.86
2023-10-10T05:34:03.329Z,78.13
2023-10-10T05:35:11.745Z,77.92
2023-10-10T05:36:18.823Z,77.83
2023-10-10T05:37:22.562Z,77.61
2023-10-10T05:38:26.378Z,77.40
2023-10-10T05:39:37.885Z,76.91
2023-10-10T05:40:43.946Z,76.79
2023-10-10T05:41:48.108Z,77.37
2023-10-10T05:42:54.743Z,76.64
2023-10-10T05:43:59.899Z,76.76
2023-10-10T05:45:09.014Z,76.84
2023-10-10T05:46:12.415Z,76.58
2023-10-10T05:47:17.364Z,76.76
2023-10-10T05:48:21.646Z,76.63
2023-10-10T05:49:25.422Z,76.59
2023-10-10T05:50:28.878Z,75.51
2023-10-10T05:51:32.575Z,75.21
2023-10-10T05:52:38.728Z,74.88
2023-10-10T05:53:42.164Z,75.04
2023-10-10T05:54:47.204Z,75.01
2023-10-10T05:55:54.034Z,75.26
2023-10-10T05:56:57.913Z,75.22
2023-10-10T05:58:02.859Z,74.08
2023-10-10T05:59:08.732Z,73.63
2023-10-10T06:00:15.965Z,73.74
2023-10-10T06:01:19.975Z,73.01
2023-10-10T06:02:23.377Z,72.88
2023-10-10T06:03:27.250Z,73.23
2023-10-10T06:04:33.404Z,73.13
2023-10-10T06:05:41.598Z,73.41
2023-10-10T06:06:46.819Z,72.79
2023-10-10T06:07:50.322Z,72.51
2023-10-10T06:09:00.685Z,72.57
2023-10-10T06:10:10.976Z,72.10
2023-10-10T06:11:14.843Z,72.31
2023-10-10T06:12:20.394Z,72.28
2023-10-10T06:13:24.997Z,72.13
2023-10-10T06:14:28.458Z,70.77
2023-10-10T06:15:34.518Z,70.67
2023-10-10T06:16:38.087Z,71.09
2023-10-10T06:17:41.638Z,71.31
2023-10-10T06:18:48.110Z,71.32
2023-10-10T06:19:51.828Z,71.43
2023-10-10T06:21:09.541Z,70.77
2023-10-10T06:22:16.100Z,70.05
2023-10-10T06:23:21.880Z,70.42
2023-10-10T06:24:27.505Z,70.32
2023-10-10T06:25:31.272Z,69.71
2023-10-10T06:26:37.363Z,69.99
2023-10-10T06:27:41.850Z,70.14
2023-10-10T06:28:48.457Z,69.72
2023-10-10T06:29:52.315Z,69.91
2023-10-10T06:30:57.533Z,70.10
2023-10-10T06:32:03.452Z,69.77
2023-10-10T06:33:14.844Z,69.84
2023-10-10T06:34:23.690Z,68.87
2023-10-10T06:35:29.245Z,69.19
2023-10-10T06:36:33.823Z,69.37
2023-10-10T06:37:38.355Z,69.65
2023-10-10T06:38:41.947Z,69.05
2023-10-10T06:39:58.020Z,68.91
2023-10-10T06:41:11.764Z,69.70
2023-10-10T06:42:27.528Z,69.94
2023-10-10T06:43:33.993Z,69.74
2023-10-10T06:44:40.725Z,68.84
2023-10-10T06:45:49.161Z,69.35
2023-10-10T06:46:56.500Z,69.49
2023-10-10T06:48:02.589Z,68.52
2023-10-10T06:49:05.965Z,68.26
2023-10-10T06:50:12.205Z,68.17
2023-10-10T06:51:22.388Z,68.30
2023-10-10T06:52:28.698Z,68.22
2023-10-10T06:53:35.958Z,67.94
2023-10-10T06:54:45.185Z,68.63
2023-10-10T06:55:48.548Z,68.50
2023-10-10T06:57:05.085Z,68.30
2023-10-10T06:58:13.431Z,68.56
2023-10-10T06:59:21.141Z,67.98
2023-10-10T07:00:32.753Z,68.09
2023-10-10T07:01:35.962Z,68.11
2023-10-10T07:02:41.954Z,68.02
2023-10-10T07:03:54.942Z,68.02
2023-10-10T07:04:58.483Z,67.54
2023-10-10T07:06:04.746Z,67.16
2023-10-10T07:07:10.388Z,67.36
2023-10-10T07:08:14.224Z,67.82
2023-10-10T07:09:28.480Z,68.10
2023-10-10T07:10:36.785Z,68.55
2023-10-10T07:11:40.812Z,68.42
2023-10-10T07:12:47.927Z,68.33
2023-10-10T07:13:59.287Z,67.47
2023-10-10T07:15:07.181Z,67.71
2023-10-10T07:16:10.479Z,67.92
2023-10-10T07:17:15.022Z,67.87
2023-10-10T07:18:26.679Z,67.14
2023-10-10T07:19:31.181Z,66.07
2023-10-10T07:20:53.307Z,66.28
2023-10-10T07:21:57.421Z,65.78
2023-10-10T07:23:01.268Z,65.67
2023-10-10T07:24:13.771Z,65.14
2023-10-10T07:25:32.452Z,65.17
2023-10-10T07:26:41.786Z,65.05
2023-10-10T07:27:46.303Z,65.34
2023-10-10T07:28:54.722Z,65.46
2023-10-10T07:29:59.643Z,65.31
2023-10-10T07:31:07.760Z,65.29
2023-10-10T07:32:28.882Z,65.29
2023-10-10T07:33:41.264Z,65.33
2023-10-10T07:34:52.022Z,65.57
2023-10-10T07:35:56.867Z,65.19
2023-10-10T07:37:08.249Z,64.95
2023-10-10T07:38:16.333Z,65.10
2023-10-10T07:39:37.246Z,65.33
2023-10-10T07:40:40.781Z,63.85
2023-10-10T07:41:47.582Z,63.59
2023-10-10T07:42:51.618Z,64.14
2023-10-10T07:43:59.076Z,64.07
2023-10-10T07:45:04.294Z,63.47
2023-10-10T07:46:19.639Z,63.74
2023-10-10T07:47:49.634Z,63.59
2023-10-10T07:48:55.120Z,64.78
2023-10-10T07:50:00.380Z,64.60
2023-10-10T07:51:07.418Z,64.79
2023-10-10T07:52:17.340Z,64.97
2023-10-10T07:53:20.960Z,64.70
2023-10-10T07:54:31.761Z,64.80
2023-10-10T07:56:01.558Z,63.98
2023-10-10T07:57:07.950Z,62.92
2023-10-10T07:58:14.495Z,63.08
2023-10-10T07:59:18.174Z,63.22
2023-10-10T08:00:27.627Z,63.37
2023-10-10T08:01:31.185Z,63.61
2023-10-10T08:02:35.504Z,64.07
2023-10-10T08:03:44.691Z,63.99
2023-10-10T08:04:51.072Z,64.17
2023-10-10T08:05:54.706Z,64.24
2023-10-10T08:06:58.253Z,64.24
2023-10-10T08:08:06.080Z,64.42
2023-10-10T08:09:12.084Z,64.48
2023-10-10T08:10:32.101Z,64.43
2023-10-10T08:11:38.442Z,64.89
2023-10-10T08:12:43.978Z,65.29
2023-10-10T08:13:49.355Z,65.13
2023-10-10T08:15:00.485Z,64.98
2023-10-10T08:16:04.155Z,64.80
2023-10-10T08:17:19.441Z,64.46
2023-10-10T08:18:43.029Z,64.81
2023-10-10T08:19:54.319Z,64.50
2023-10-10T08:20:57.773Z,64.66
2023-10-10T08:22:12.737Z,64.76
2023-10-10T08:23:17.357Z,64.53
2023-10-10T08:24:21.541Z,64.33
2023-10-10T08:25:25.404Z,63.86
2023-10-10T08:26:30.780Z,63.84
2023-10-10T08:27:34.643Z,63.99
2023-10-10T08:28:38.238Z,64.13
2023-10-10T08:29:42.659Z,63.97
2023-10-10T08:30:46.578Z,63.98
2023-10-10T08:31:52.510Z,64.20
2023-10-10T08:32:56.574Z,63.82
2023-10-10T08:34:01.135Z,63.87
2023-10-10T08:35:08.714Z,63.68
2023-10-10T08:36:13.232Z,64.18
2023-10-10T08:37:16.628Z,64.36
2023-10-10T08:38:21.162Z,64.11
2023-10-10T08:39:24.755Z,64.27
2023-10-10T08:40:34.352Z,63.99
2023-10-10T08:41:39.779Z,63.59
2023-10-10T08:42:44.828Z,63.96
2023-10-10T08:43:53.848Z,63.67
2023-10-10T08:44:59.897Z,63.21
2023-10-10T08:46:05.186Z,62.73
2023-10-10T08:47:20.440Z,62.71
2023-10-10T08:48:28.410Z,62.20
2023-10-10T08:49:33.176Z,62.51
2023-10-10T08:50:39.650Z,62.82
2023-10-10T08:51:45.395Z,63.94
2023-10-10T08:52:49.208Z,64.04
2023-10-10T08:53:53.751Z,64.39
2023-10-10T08:54:59.091Z,64.64
2023-10-10T08:56:04.180Z,64.87
2023-10-10T08:57:11.820Z,64.70
2023-10-10T08:58:15.255Z,64.65
2023-10-10T08:59:18.763Z,64.45
2023-10-10T09:00:22.649Z,64.45
2023-10-10T09:01:33.624Z,64.16
2023-10-10T09:02:37.232Z,64.02
2023-10-10T09:03:45.960Z,63.85
2023-10-10T09:04:51.129Z,63.82
2023-10-10T09:05:56.304Z,64.22
2023-10-10T09:07:08.550Z,64.41
2023-10-10T09:08:17.906Z,63.95
2023-10-10T09:09:34.019Z,63.96
2023-10-10T09:10:40.346Z,63.95
2023-10-10T09:11:44.076Z,63.88
2023-10-10T09:12:57.016Z,63.65
2023-10-10T09:14:03.252Z,63.36
2023-10-10T09:15:17.193Z,63.48
2023-10-10T09:16:44.978Z,63.24
2023-10-10T09:17:55.945Z,62.80
2023-10-10T09:19:09.100Z,62.53
2023-10-10T09:20:29.372Z,62.33
2023-10-10T09:21:45.349Z,62.65
2023-10-10T09:22:52.818Z,62.37
2023-10-10T09:24:26.701Z,62.60
2023-10-10T09:25:58.331Z,61.45
2023-10-10T09:27:29.108Z,60.66
2023-10-10T09:28:46.750Z,60.99
2023-10-10T09:29:57.612Z,59.88
2023-10-10T09:31:03.530Z,59.68
2023-10-10T09:32:07.058Z,59.44
2023-10-10T09:33:22.766Z,58.77
2023-10-10T09:34:30.598Z,58.55
2023-10-10T09:35:40.536Z,58.02
2023-10-10T09:36:52.694Z,57.40
2023-10-10T09:38:01.315Z,56.60
2023-10-10T09:39:09.528Z,56.50
2023-10-10T09:40:17.059Z,56.92
2023-10-10T09:41:33.585Z,57.19
2023-10-10T09:43:04.053Z,57.34
2023-10-10T09:44:24.496Z,57.66
2023-10-10T09:45:50.882Z,57.98
2023-10-10T09:47:01.744Z,58.24
2023-10-10T09:48:17.725Z,58.47
2023-10-10T09:49:41.864Z,58.37
2023-10-10T09:51:07.487Z,57.57
2023-10-10T09:52:32.723Z,57.41
2023-10-10T09:53:36.754Z,57.97
2023-10-10T09:54:44.881Z,57.24
2023-10-10T09:55:53.896Z,57.34
2023-10-10T09:56:59.489Z,57.71
2023-10-10T09:58:08.372Z,57.11
2023-10-10T09:59:13.260Z,56.53
2023-10-10T10:00:31.180Z,56.02
2023-10-10T10:01:45.421Z,56.37
2023-10-10T10:02:50.766Z,55.40
2023-10-10T10:04:00.359Z,55.32
2023-10-10T10:05:14.317Z,55.95
2023-10-10T10:08:07.104Z,56.52
2023-10-10T10:09:32.467Z,56.13
2023-10-10T10:10:49.522Z,55.45
2023-10-10T10:12:30.688Z,55.69
2023-10-10T10:13:57.808Z,56.02
2023-10-10T10:15:16.885Z,55.64
2023-10-10T10:16:33.106Z,55.49
2023-10-10T10:17:50.229Z,55.09
2023-10-10T10:19:12.415Z,54.16
2023-10-10T10:20:26.072Z,53.75
2023-10-10T10:21:33.500Z,54.59
2023-10-10T10:22:43.462Z,54.84
2023-10-10T10:23:56.649Z,54.58
2023-10-10T10:25:29.509Z,54.24
2023-10-10T10:26:42.735Z,53.44
2023-10-10T10:27:50.218Z,53.51
2023-10-10T10:28:58.650Z,52.30
2023-10-10T10:30:19.676Z,52.45
2023-10-10T10:31:30.773Z,52.17
2023-10-10T10:32:36.276Z,52.17
2023-10-10T10:33:59.793Z,51.52
2023-10-10T10:35:09.351Z,52.05
2023-10-10T10:36:17.451Z,51.93
2023-10-10T10:37:24.385Z,50.83
2023-10-10T10:38:27.858Z,49.65
2023-10-10T10:39:38.046Z,49.55
2023-10-10T10:40:46.417Z,49.70
2023-10-10T10:41:54.554Z,49.89
2023-10-10T10:43:04.327Z,50.05
2023-10-10T10:44:09.916Z,49.42
2023-10-10T10:45:35.667Z,49.22
2023-10-10T10:46:41.414Z,49.34
2023-10-10T10:47:54.979Z,49.47
2023-10-10T10:49:06.085Z,50.02
2023-10-10T10:50:28.592Z,50.09
2023-10-10T10:51:52.742Z,49.84
2023-10-10T10:53:06.372Z,49.46
2023-10-10T10:54:30.204Z,49.49
2023-10-10T10:55:40.380Z,49.39
2023-10-10T10:56:47.681Z,49.02
2023-10-10T10:58:21.160Z,49.26
2023-10-10T10:59:24.637Z,49.34
2023-10-10T11:00:57.914Z,49.38
2023-10-10T11:02:01.469Z,49.16
2023-10-10T11:03:10.760Z,49.00
2023-10-10T11:04:18.533Z,48.78
2023-10-10T11:05:28.750Z,48.58
2023-10-10T11:06:32.127Z,48.90
2023-10-10T11:07:41.763Z,49.09
2023-10-10T11:10:07.309Z,48.76
2023-10-10T11:11:29.537Z,48.50
2023-10-10T11:12:34.208Z,48.60
2023-10-10T11:13:37.456Z,48.84
2023-10-10T11:14:47.109Z,48.72
2023-10-10T11:15:54.308Z,49.03
2023-10-10T11:16:59.634Z,48.79
2023-10-10T11:18:08.680Z,49.42
2023-10-10T11:19:23.748Z,49.93
2023-10-10T11:20:51.120Z,49.84
2023-10-10T11:22:00.735Z,49.74
2023-10-10T11:23:15.169Z,49.78
2023-10-10T11:24:26.261Z,49.71
2023-10-10T11:25:42.853Z,49.53
2023-10-10T11:26:47.160Z,49.62
2023-10-10T11:27:50.866Z,49.68
2023-10-10T11:29:00.111Z,49.25
2023-10-10T11:30:09.493Z,49.39
2023-10-10T11:31:12.932Z,49.51
2023-10-10T11:32:24.469Z,49.39
2023-10-10T11:33:49.425Z,49.37
2023-10-10T11:34:56.718Z,48.98
2023-10-10T11:36:44.744Z,49.49
2023-10-10T11:37:49.580Z,49.16
2023-10-10T11:38:57.010Z,49.34
2023-10-10T11:40:28.217Z,49.50
2023-10-10T11:41:36.527Z,49.73
2023-10-10T11:42:47.671Z,49.42
2023-10-10T11:44:03.884Z,49.51
2023-10-10T11:45:18.609Z,50.39
2023-10-10T11:46:23.059Z,50.22
2023-10-10T11:47:27.800Z,50.20
2023-10-10T11:48:44.208Z,50.01
2023-10-10T11:49:58.487Z,50.12
2023-10-10T11:51:01.894Z,50.24
2023-10-10T11:52:16.214Z,50.25
2023-10-10T11:53:24.839Z,50.41
2023-10-10T11:54:30.333Z,50.57
2023-10-10T11:55:36.078Z,50.22
2023-10-10T11:56:40.398Z,50.48
2023-10-10T11:57:46.928Z,50.68
2023-10-10T11:58:50.387Z,51.12
2023-10-10T11:59:53.579Z,50.75
2023-10-10T12:01:04.870Z,51.00
2023-10-10T12:02:14.813Z,51.47
2023-10-10T12:03:32.176Z,50.69
2023-10-10T12:04:38.374Z,50.63
2023-10-10T12:05:48.878Z,50.01
2023-10-10T12:06:56.580Z,50.57
2023-10-10T12:08:05.977Z,49.90
2023-10-10T12:09:11.376Z,49.62
2023-10-10T12:10:18.190Z,49.63
2023-10-10T12:11:22.333Z,49.64
2023-10-10T12:12:26.063Z,49.82
2023-10-10T12:13:29.358Z,49.97
2023-10-10T12:14:34.074Z,49.27
2023-10-10T12:15:40.054Z,48.34
2023-10-10T12:16:43.334Z,47.71
2023-10-10T12:17:49.195Z,48.15
2023-10-10T12:18:54.811Z,48.28
2023-10-10T12:20:00.679Z,48.33
2023-10-10T12:21:04.520Z,48.64
2023-10-10T12:22:09.623Z,49.09
2023-10-10T12:23:14.229Z,48.90
2023-10-10T12:24:18.324Z,48.92
2023-10-10T12:25:22.105Z,48.69
2023-10-10T12:26:25.813Z,49.01
2023-10-10T12:27:31.386Z,49.34
2023-10-10T12:28:35.842Z,49.47
2023-10-10T12:29:42.237Z,49.69
2023-10-10T12:30:46.010Z,49.92
2023-10-10T12:31:56.238Z,49.90
2023-10-10T12:33:00.734Z,49.57
2023-10-10T12:34:07.013Z,49.88
2023-10-10T12:35:11.315Z,50.09
2023-10-10T12:36:15.346Z,50.52
2023-10-10T12:37:19.212Z,50.53
2023-10-10T12:38:23.194Z,50.32
2023-10-10T12:39:30.605Z,50.31
2023-10-10T12:40:34.427Z,50.41
2023-10-10T12:41:46.489Z,50.53
2023-10-10T12:42:51.487Z,50.60
2023-10-10T12:43:54.797Z,50.59
2023-10-10T12:45:01.837Z,50.64
2023-10-10T12:46:07.877Z,50.98
2023-10-10T12:47:17.911Z,50.76
2023-10-10T12:48:21.574Z,50.90
2023-10-10T12:49:37.045Z,50.72
2023-10-10T12:50:39.590Z,50.91
2023-10-10T12:51:46.415Z,51.16
2023-10-10T12:53:08.265Z,51.41
2023-10-10T12:54:13.626Z,51.49
2023-10-10T12:55:20.088Z,51.53
2023-10-10T12:56:24.385Z,51.37
2023-10-10T12:57:32.910Z,51.47
2023-10-10T12:58:41.597Z,51.58
2023-10-10T12:59:47.814Z,51.76
2023-10-10T13:00:53.691Z,51.73
2023-10-10T13:02:00.999Z,51.51
2023-10-10T13:03:08.023Z,51.26
2023-10-10T13:04:13.058Z,51.66
2023-10-10T13:05:27.335Z,51.44
2023-10-10T13:06:31.209Z,51.71
2023-10-10T13:07:36.249Z,51.71
2023-10-10T13:08:39.823Z,51.77
2023-10-10T13:09:47.033Z,51.88
2023-10-10T13:10:56.714Z,51.65
2023-10-10T13:12:03.356Z,51.87
2023-10-10T13:13:10.238Z,51.61
2023-10-10T13:14:19.790Z,51.27
2023-10-10T13:15:30.681Z,51.45
2023-10-10T13:16:43.356Z,51.35
2023-10-10T13:17:54.056Z,51.59
2023-10-10T13:18:57.821Z,51.42
2023-10-10T13:20:01.478Z,51.24
2023-10-10T13:21:05.407Z,51.31
2023-10-10T13:22:08.911Z,51.49
2023-10-10T13:23:14.878Z,51.70
2023-10-10T13:24:19.505Z,51.84
2023-10-10T13:25:22.932Z,51.65
2023-10-10T13:26:28.507Z,51.75
2023-10-10T13:27:32.576Z,51.79
2023-10-10T13:28:38.039Z,51.70
2023-10-10T13:29:42.266Z,51.99
2023-10-10T13:30:49.163Z,51.77
2023-10-10T13:31:52.621Z,51.66
2023-10-10T13:32:56.275Z,51.35
2023-10-10T13:34:00.064Z,51.69
2023-10-10T13:35:06.046Z,51.70
2023-10-10T13:36:15.716Z,51.81
2023-10-10T13:37:19.457Z,51.79
2023-10-10T13:38:25.872Z,51.79
2023-10-10T13:39:43.972Z,51.95
2023-10-10T13:40:49.736Z,51.93
2023-10-10T13:41:54.546Z,52.22
2023-10-10T13:43:00.231Z,52.15
2023-10-10T13:44:04.804Z,52.18
2023-10-10T13:45:18.036Z,52.41
2023-10-10T13:46:24.857Z,52.37
2023-10-10T13:47:28.372Z,52.31
2023-10-10T13:48:35.521Z,52.26
2023-10-10T13:49:45.239Z,52.32
2023-10-10T13:50:51.831Z,52.27
2023-10-10T13:51:55.556Z,52.02
2023-10-10T13:53:00.086Z,51.83
2023-10-10T13:54:04.282Z,51.92
2023-10-10T13:55:10.363Z,51.85
2023-10-10T13:56:17.791Z,51.81
2023-10-10T13:57:21.414Z,51.65
2023-10-10T13:58:25.218Z,51.52
2023-10-10T13:59:28.393Z,51.07
2023-10-10T14:00:36.384Z,51.01
2023-10-10T14:01:42.307Z,51.17
2023-10-10T14:02:46.619Z,51.06
2023-10-10T14:03:56.860Z,51.19
2023-10-10T14:05:01.752Z,51.02
2023-10-10T14:06:08.994Z,50.80
2023-10-10T14:07:14.833Z,51.19
2023-10-10T14:08:18.421Z,51.21
2023-10-10T14:09:25.862Z,51.13
2023-10-10T14:10:36.271Z,51.02
2023-10-10T14:11:39.832Z,51.17
2023-10-10T14:12:44.987Z,51.28
2023-10-10T14:13:50.368Z,51.16
2023-10-10T14:14:53.892Z,50.50
2023-10-10T14:15:58.987Z,50.64
2023-10-10T14:17:06.050Z,50.68
2023-10-10T14:18:11.056Z,50.43
2023-10-10T14:19:14.818Z,50.58
2023-10-10T14:20:22.017Z,50.88
2023-10-10T14:21:26.575Z,50.59
2023-10-10T14:22:41.641Z,50.69
2023-10-10T14:23:49.243Z,50.84
2023-10-10T14:24:53.374Z,50.69
2023-10-10T14:26:19.071Z,50.78
2023-10-10T14:27:24.070Z,50.49
2023-10-10T14:28:29.257Z,51.08
2023-10-10T14:29:42.265Z,51.31
2023-10-10T14:30:49.889Z,51.38
2023-10-10T14:31:59.154Z,51.30
2023-10-10T14:33:04.244Z,50.63
2023-10-10T14:34:08.337Z,49.94
2023-10-10T14:35:13.354Z,50.15
2023-10-10T14:36:17.264Z,50.32
2023-10-10T14:37:36.448Z,50.56
2023-10-10T14:38:48.709Z,50.59
2023-10-10T14:39:56.282Z,50.79
2023-10-10T14:41:01.570Z,51.11
2023-10-10T14:42:08.888Z,51.14
2023-10-10T14:43:12.907Z,51.01
2023-10-10T14:44:16.936Z,51.01
2023-10-10T14:45:24.581Z,51.09
2023-10-10T14:46:32.691Z,51.21
2023-10-10T14:47:39.723Z,51.18
2023-10-10T14:48:43.568Z,51.45
2023-10-10T14:49:50.001Z,51.18
2023-10-10T14:50:53.468Z,51.37
2023-10-10T14:52:03.659Z,51.63
2023-10-10T14:53:10.378Z,51.74
2023-10-10T14:54:13.931Z,51.81
2023-10-10T14:55:29.120Z,52.02
2023-10-10T14:56:36.186Z,51.96
2023-10-10T14:57:42.521Z,52.05
2023-10-10T14:58:48.807Z,52.28
2023-10-10T14:59:56.276Z,52.42
2023-10-10T15:00:59.857Z,52.38
2023-10-10T15:02:07.061Z,52.60
2023-10-10T15:03:16.254Z,52.79
2023-10-10T15:04:22.313Z,52.97
2023-10-10T15:05:27.001Z,52.81
2023-10-10T15:06:31.115Z,53.30
2023-10-10T15:07:42.061Z,53.26